createdAt,value
2018-03-04T00:00:01.997Z,988.29
2018-03-04T00:01:02.020Z,988.27
2018-03-04T00:02:02.021Z,988.25
2018-03-04T00:03:02.034Z,988.26
2018-03-04T00:04:02.048Z,988.24
2018-03-04T00:05:02.068Z,988.26
2018-03-04T00:06:02.080Z,988.26
2018-03-04T00:07:02.093Z,988.22
2018-03-04T00:08:02.107Z,988.21
2018-03-04T00:09:02.116Z,988.21
2018-03-04T00:10:02.136Z,988.24
2018-03-04T00:11:02.153Z,988.21
2018-03-04T00:12:02.161Z,988.20
2018-03-04T00:13:02.178Z,988.19
2018-03-04T00:14:02.193Z,988.20
2018-03-04T00:15:02.209Z,988.21
2018-03-04T00:16:02.222Z,988.23
2018-03-04T00:17:02.233Z,988.17
2018-03-04T00:18:02.252Z,988.08
2018-03-04T00:19:02.269Z,988.04
2018-03-04T00:20:02.285Z,987.96
2018-03-04T00:21:02.304Z,987.96
2018-03-04T00:22:02.316Z,988.02
2018-03-04T00:23:02.320Z,987.97
2018-03-04T00:24:02.342Z,988.00
2018-03-04T00:25:02.353Z,988.02
2018-03-04T00:26:02.379Z,988.03
2018-03-04T00:27:02.384Z,988.10
2018-03-04T00:28:02.407Z,988.09
2018-03-04T00:29:02.417Z,988.13
2018-03-04T00:30:02.432Z,988.17
2018-03-04T00:31:02.442Z,988.19
2018-03-04T00:32:02.452Z,988.19
2018-03-04T00:33:02.473Z,988.20
2018-03-04T00:34:02.510Z,988.19
2018-03-04T00:35:02.496Z,988.17
2018-03-04T00:36:02.514Z,988.19
2018-03-04T00:37:02.530Z,988.20
2018-03-04T00:38:02.552Z,988.15
2018-03-04T00:39:02.558Z,988.20
2018-03-04T00:40:02.572Z,988.19
2018-03-04T00:41:02.588Z,988.17
2018-03-04T00:42:02.603Z,988.23
2018-03-04T00:43:02.618Z,988.21
2018-03-04T00:44:02.634Z,988.19
2018-03-04T00:45:02.644Z,988.16
2018-03-04T00:46:02.663Z,988.18
2018-03-04T00:47:02.674Z,988.14
2018-03-04T00:48:02.698Z,988.15
2018-03-04T00:49:02.956Z,988.18
2018-03-04T00:50:02.720Z,988.15
2018-03-04T00:51:02.742Z,988.18
2018-03-04T00:52:02.746Z,988.18
2018-03-04T00:53:02.759Z,988.15
2018-03-04T00:54:02.778Z,988.14
2018-03-04T00:55:02.792Z,988.12
2018-03-04T00:56:02.811Z,988.16
2018-03-04T00:57:02.823Z,988.19
2018-03-04T00:58:02.834Z,988.18
2018-03-04T00:59:02.855Z,988.18
2018-03-04T01:00:02.881Z,988.19
2018-03-04T01:01:02.877Z,988.21
2018-03-04T01:02:02.894Z,988.22
2018-03-04T01:03:02.932Z,988.19
2018-03-04T01:04:02.926Z,988.17
2018-03-04T01:05:02.941Z,988.14
2018-03-04T01:06:02.947Z,988.09
2018-03-04T01:07:02.966Z,988.13
2018-03-04T01:08:02.984Z,988.09
2018-03-04T01:09:02.996Z,988.11
2018-03-04T01:10:03.010Z,988.11
2018-03-04T01:11:03.045Z,988.09
2018-03-04T01:12:03.047Z,988.07
2018-03-04T01:13:03.057Z,988.06
2018-03-04T01:14:03.082Z,988.07
2018-03-04T01:15:03.104Z,988.03
2018-03-04T01:16:03.097Z,988.01
2018-03-04T01:17:03.112Z,987.98
2018-03-04T01:18:03.122Z,987.94
2018-03-04T01:19:03.138Z,987.99
2018-03-04T01:20:03.154Z,987.92
2018-03-04T01:21:03.168Z,987.90
2018-03-04T01:22:03.187Z,987.95
2018-03-04T01:23:03.205Z,987.91
2018-03-04T01:24:03.218Z,987.85
2018-03-04T01:25:03.226Z,987.88
2018-03-04T01:26:03.243Z,987.89
2018-03-04T01:27:03.262Z,987.88
2018-03-04T01:28:03.301Z,987.88
2018-03-04T01:29:03.310Z,987.87
2018-03-04T01:30:03.296Z,987.88
2018-03-04T01:31:03.313Z,987.92
2018-03-04T01:32:03.326Z,987.92
2018-03-04T01:33:03.360Z,987.99
2018-03-04T01:34:03.355Z,988.04
2018-03-04T01:35:03.369Z,988.08
2018-03-04T01:36:03.389Z,988.12
2018-03-04T01:37:03.398Z,988.04
2018-03-04T01:38:03.412Z,988.01
2018-03-04T01:39:03.431Z,988.01
2018-03-04T01:40:03.442Z,988.01
2018-03-04T01:41:03.504Z,988.02
2018-03-04T01:42:03.469Z,988.09
2018-03-04T01:43:03.480Z,988.10
2018-03-04T01:44:03.498Z,988.10
2018-03-04T01:45:03.514Z,988.10
2018-03-04T01:46:03.524Z,988.14
2018-03-04T01:47:03.544Z,988.19
2018-03-04T01:48:03.559Z,988.19
2018-03-04T01:49:03.569Z,988.20
2018-03-04T01:50:03.595Z,988.20
2018-03-04T01:51:03.601Z,988.23
2018-03-04T01:52:03.614Z,988.21
2018-03-04T01:53:03.626Z,988.24
2018-03-04T01:54:03.640Z,988.25
2018-03-04T01:55:03.651Z,988.27
2018-03-04T01:56:03.673Z,988.24
2018-03-04T01:57:03.678Z,988.23
2018-03-04T01:58:03.695Z,988.21
2018-03-04T01:59:03.709Z,988.29
2018-03-04T02:00:03.726Z,988.34
2018-03-04T02:01:03.742Z,988.36
2018-03-04T02:02:03.757Z,988.35
2018-03-04T02:03:03.775Z,988.40
2018-03-04T02:04:03.784Z,988.40
2018-03-04T02:05:03.802Z,988.39
2018-03-04T02:06:03.813Z,988.41
2018-03-04T02:07:03.827Z,988.32
2018-03-04T02:08:03.854Z,988.42
2018-03-04T02:09:03.864Z,988.39
2018-03-04T02:10:03.890Z,988.41
2018-03-04T02:11:03.885Z,988.50
2018-03-04T02:12:03.895Z,988.49
2018-03-04T02:13:03.927Z,988.52
2018-03-04T02:14:03.924Z,988.54
2018-03-04T02:15:03.941Z,988.53
2018-03-04T02:16:03.963Z,988.54
2018-03-04T02:17:03.971Z,988.51
2018-03-04T02:18:03.985Z,988.45
2018-03-04T02:19:03.998Z,988.43
2018-03-04T02:20:04.012Z,988.36
2018-03-04T02:21:04.028Z,988.35
2018-03-04T02:22:04.043Z,988.34
2018-03-04T02:23:04.054Z,988.35
2018-03-04T02:24:04.072Z,988.36
2018-03-04T02:25:04.099Z,988.35
2018-03-04T02:26:04.102Z,988.35
2018-03-04T02:27:04.118Z,988.29
2018-03-04T02:28:04.128Z,988.23
2018-03-04T02:29:04.158Z,988.22
2018-03-04T02:30:04.227Z,988.27
2018-03-04T02:31:04.175Z,988.23
2018-03-04T02:32:04.217Z,988.16
2018-03-04T02:33:04.208Z,988.14
2018-03-04T02:34:04.247Z,988.12
2018-03-04T02:35:04.243Z,988.08
2018-03-04T02:36:04.281Z,988.06
2018-03-04T02:37:04.275Z,988.03
2018-03-04T02:38:04.308Z,988.00
2018-03-04T02:39:04.289Z,988.01
2018-03-04T02:40:04.434Z,988.03
2018-03-04T02:41:04.345Z,988.02
2018-03-04T02:42:04.370Z,988.03
2018-03-04T02:43:04.341Z,988.07
2018-03-04T02:44:04.364Z,988.09
2018-03-04T02:45:04.375Z,988.14
2018-03-04T02:46:04.447Z,988.14
2018-03-04T02:47:04.402Z,988.13
2018-03-04T02:48:04.415Z,988.14
2018-03-04T02:49:04.428Z,988.04
2018-03-04T02:50:04.446Z,988.00
2018-03-04T02:51:04.457Z,987.95
2018-03-04T02:52:04.475Z,987.94
2018-03-04T02:53:04.496Z,987.87
2018-03-04T02:54:04.506Z,987.81
2018-03-04T02:55:04.517Z,987.78
2018-03-04T02:56:04.535Z,987.75
2018-03-04T02:57:04.543Z,987.70
2018-03-04T02:58:04.562Z,987.72
2018-03-04T02:59:04.575Z,987.70
2018-03-04T03:00:04.590Z,987.71
2018-03-04T03:01:04.605Z,987.75
2018-03-04T03:02:04.626Z,987.68
2018-03-04T03:03:04.634Z,987.68
2018-03-04T03:04:04.649Z,987.71
2018-03-04T03:05:04.659Z,987.65
2018-03-04T03:06:04.685Z,987.64
2018-03-04T03:07:04.688Z,987.59
2018-03-04T03:08:04.704Z,987.54
2018-03-04T03:09:04.718Z,987.52
2018-03-04T03:10:04.740Z,987.55
2018-03-04T03:11:04.748Z,987.56
2018-03-04T03:12:04.775Z,987.60
2018-03-04T03:13:04.774Z,987.60
2018-03-04T03:14:04.800Z,987.66
2018-03-04T03:15:04.808Z,987.71
2018-03-04T03:16:04.821Z,987.75
2018-03-04T03:17:04.834Z,987.72
2018-03-04T03:18:04.845Z,987.77
2018-03-04T03:19:04.872Z,987.78
2018-03-04T03:20:04.878Z,987.77
2018-03-04T03:21:04.896Z,987.75
2018-03-04T03:22:04.931Z,987.71
2018-03-04T03:23:04.923Z,987.69
2018-03-04T03:24:04.937Z,987.68
2018-03-04T03:25:04.946Z,987.69
2018-03-04T03:26:04.963Z,987.68
2018-03-04T03:27:04.980Z,987.70
2018-03-04T03:28:04.986Z,987.64
2018-03-04T03:29:05.005Z,987.66
2018-03-04T03:30:05.025Z,987.66
2018-03-04T03:31:05.035Z,987.64
2018-03-04T03:32:05.047Z,987.64
2018-03-04T03:33:05.060Z,987.60
2018-03-04T03:34:05.073Z,987.57
2018-03-04T03:35:05.095Z,987.51
2018-03-04T03:36:05.108Z,987.55
2018-03-04T03:37:05.124Z,987.59
2018-03-04T03:38:05.135Z,987.55
2018-03-04T03:39:05.148Z,987.54
2018-03-04T03:40:05.162Z,987.57
2018-03-04T03:41:05.177Z,987.54
2018-03-04T03:42:05.192Z,987.51
2018-03-04T03:43:05.210Z,987.44
2018-03-04T03:44:05.222Z,987.41
2018-03-04T03:45:05.232Z,987.43
2018-03-04T03:46:05.259Z,987.41
2018-03-04T03:47:05.265Z,987.43
2018-03-04T03:48:05.276Z,987.45
2018-03-04T03:49:05.292Z,987.47
2018-03-04T03:50:05.310Z,987.44
2018-03-04T03:51:05.357Z,987.43
2018-03-04T03:52:05.334Z,987.46
2018-03-04T03:53:05.347Z,987.45
2018-03-04T03:54:05.362Z,987.51
2018-03-04T03:55:05.385Z,987.48
2018-03-04T03:56:05.394Z,987.49
2018-03-04T03:57:05.408Z,987.57
2018-03-04T03:58:05.419Z,987.51
2018-03-04T03:59:05.438Z,987.52
2018-03-04T04:00:05.450Z,987.57
2018-03-04T04:01:05.461Z,987.49
2018-03-04T04:02:05.483Z,987.55
2018-03-04T04:03:05.515Z,987.55
2018-03-04T04:04:05.513Z,987.52
2018-03-04T04:05:05.526Z,987.55
2018-03-04T04:06:05.538Z,987.57
2018-03-04T04:07:05.547Z,987.53
2018-03-04T04:08:05.567Z,987.53
2018-03-04T04:09:05.581Z,987.55
2018-03-04T04:10:05.592Z,987.53
2018-03-04T04:11:05.604Z,987.52
2018-03-04T04:12:05.614Z,987.55
2018-03-04T04:13:05.632Z,987.52
2018-03-04T04:14:05.649Z,987.50
2018-03-04T04:15:05.661Z,987.46
2018-03-04T04:16:05.679Z,987.46
2018-03-04T04:17:05.687Z,987.48
2018-03-04T04:18:05.710Z,987.46
2018-03-04T04:19:05.723Z,987.49
2018-03-04T04:20:05.737Z,987.49
2018-03-04T04:21:05.756Z,987.50
2018-03-04T04:22:05.764Z,987.49
2018-03-04T04:23:05.780Z,987.46
2018-03-04T04:24:05.794Z,987.51
2018-03-04T04:25:05.830Z,987.46
2018-03-04T04:26:05.820Z,987.47
2018-03-04T04:27:05.836Z,987.51
2018-03-04T04:28:05.851Z,987.50
2018-03-04T04:29:05.871Z,987.54
2018-03-04T04:30:05.889Z,987.56
2018-03-04T04:31:05.912Z,987.51
2018-03-04T04:32:05.902Z,987.54
2018-03-04T04:33:05.919Z,987.53
2018-03-04T04:34:05.949Z,987.49
2018-03-04T04:35:05.953Z,987.46
2018-03-04T04:36:05.981Z,987.44
2018-03-04T04:37:05.993Z,987.46
2018-03-04T04:38:05.991Z,987.44
2018-03-04T04:39:06.015Z,987.43
2018-03-04T04:40:06.024Z,987.41
2018-03-04T04:41:06.032Z,987.42
2018-03-04T04:42:06.051Z,987.42
2018-03-04T04:43:06.072Z,987.39
2018-03-04T04:44:06.082Z,987.43
2018-03-04T04:45:06.099Z,987.45
2018-03-04T04:46:06.106Z,987.44
2018-03-04T04:47:06.120Z,987.42
2018-03-04T04:48:06.130Z,987.43
2018-03-04T04:49:06.151Z,987.38
2018-03-04T04:50:06.164Z,987.40
2018-03-04T04:51:06.179Z,987.39
2018-03-04T04:52:06.196Z,987.41
2018-03-04T04:53:06.203Z,987.39
2018-03-04T04:54:06.220Z,987.36
2018-03-04T04:55:06.233Z,987.36
2018-03-04T04:56:06.250Z,987.37
2018-03-04T04:57:06.265Z,987.39
2018-03-04T04:58:06.282Z,987.39
2018-03-04T04:59:06.296Z,987.43
2018-03-04T05:00:06.307Z,987.42
2018-03-04T05:01:06.324Z,987.42
2018-03-04T05:02:06.332Z,987.40
2018-03-04T05:03:06.350Z,987.39
2018-03-04T05:04:06.367Z,987.34
2018-03-04T05:05:06.383Z,987.33
2018-03-04T05:06:06.392Z,987.39
2018-03-04T05:07:06.401Z,987.42
2018-03-04T05:08:06.419Z,987.46
2018-03-04T05:09:06.434Z,987.46
2018-03-04T05:10:06.449Z,987.47
2018-03-04T05:11:06.469Z,987.46
2018-03-04T05:12:06.487Z,987.50
2018-03-04T05:13:06.499Z,987.52
2018-03-04T05:14:06.507Z,987.47
2018-03-04T05:15:06.521Z,987.49
2018-03-04T05:16:06.535Z,987.46
2018-03-04T05:17:06.552Z,987.46
2018-03-04T05:18:06.563Z,987.46
2018-03-04T05:19:06.582Z,987.46
2018-03-04T05:20:06.591Z,987.46
2018-03-04T05:21:06.604Z,987.49
2018-03-04T05:22:06.626Z,987.45
2018-03-04T05:23:06.636Z,987.45
2018-03-04T05:24:06.651Z,987.44
2018-03-04T05:25:06.689Z,987.45
2018-03-04T05:26:06.677Z,987.43
2018-03-04T05:27:06.689Z,987.47
2018-03-04T05:28:06.708Z,987.53
2018-03-04T05:29:06.717Z,987.54
2018-03-04T05:30:06.731Z,987.57
2018-03-04T05:31:06.749Z,987.54
2018-03-04T05:32:06.760Z,987.54
2018-03-04T05:33:06.774Z,987.52
2018-03-04T05:34:06.788Z,987.51
2018-03-04T05:35:06.800Z,987.52
2018-03-04T05:36:06.819Z,987.53
2018-03-04T05:37:06.832Z,987.56
2018-03-04T05:38:06.856Z,987.52
2018-03-04T05:39:06.866Z,987.50
2018-03-04T05:40:06.872Z,987.49
2018-03-04T05:41:06.888Z,987.45
2018-03-04T05:42:06.904Z,987.45
2018-03-04T05:43:06.916Z,987.35
2018-03-04T05:44:06.934Z,987.35
2018-03-04T05:45:06.944Z,987.35
2018-03-04T05:46:06.969Z,987.34
2018-03-04T05:47:06.992Z,987.34
2018-03-04T05:48:06.988Z,987.32
2018-03-04T05:49:06.999Z,987.28
2018-03-04T05:50:07.013Z,987.27
2018-03-04T05:51:07.031Z,987.22
2018-03-04T05:52:07.049Z,987.21
2018-03-04T05:53:07.059Z,987.14
2018-03-04T05:54:07.086Z,987.13
2018-03-04T05:55:07.102Z,987.09
2018-03-04T05:56:07.100Z,987.08
2018-03-04T05:57:07.119Z,987.08
2018-03-04T05:58:07.130Z,987.02
2018-03-04T05:59:07.143Z,986.98
2018-03-04T06:00:07.173Z,986.91
2018-03-04T06:01:07.185Z,986.89
2018-03-04T06:02:07.191Z,986.86
2018-03-04T06:03:07.204Z,986.91
2018-03-04T06:04:07.211Z,986.93
2018-03-04T06:05:07.237Z,986.90
2018-03-04T06:06:07.243Z,986.92
2018-03-04T06:07:07.261Z,986.93
2018-03-04T06:08:07.272Z,986.89
2018-03-04T06:09:07.288Z,986.83
2018-03-04T06:10:07.299Z,986.83
2018-03-04T06:11:07.309Z,986.78
2018-03-04T06:12:07.326Z,986.78
2018-03-04T06:13:07.343Z,986.75
2018-03-04T06:14:07.359Z,986.70
2018-03-04T06:15:07.372Z,986.77
2018-03-04T06:16:07.390Z,986.69
2018-03-04T06:17:07.396Z,986.68
2018-03-04T06:18:07.410Z,986.65
2018-03-04T06:19:07.426Z,986.59
2018-03-04T06:20:07.453Z,986.65
2018-03-04T06:21:07.451Z,986.67
2018-03-04T06:22:07.467Z,986.76
2018-03-04T06:23:07.486Z,986.80
2018-03-04T06:24:07.495Z,986.82
2018-03-04T06:25:07.503Z,986.87
2018-03-04T06:26:07.527Z,986.91
2018-03-04T06:27:07.539Z,986.98
2018-03-04T06:28:07.551Z,986.98
2018-03-04T06:29:07.563Z,987.01
2018-03-04T06:30:07.581Z,987.02
2018-03-04T06:31:07.616Z,987.08
2018-03-04T06:32:07.608Z,987.15
2018-03-04T06:33:07.621Z,987.29
2018-03-04T06:34:07.642Z,987.33
2018-03-04T06:35:07.651Z,987.34
2018-03-04T06:36:07.663Z,987.33
2018-03-04T06:37:07.674Z,987.33
2018-03-04T06:38:07.692Z,987.36
2018-03-04T06:39:07.706Z,987.33
2018-03-04T06:40:07.717Z,987.27
2018-03-04T06:41:07.732Z,987.27
2018-03-04T06:42:07.744Z,987.22
2018-03-04T06:43:07.757Z,987.23
2018-03-04T06:44:07.774Z,987.29
2018-03-04T06:45:07.788Z,987.35
2018-03-04T06:46:07.802Z,987.35
2018-03-04T06:47:07.817Z,987.42
2018-03-04T06:48:07.827Z,987.41
2018-03-04T06:49:07.843Z,987.42
2018-03-04T06:50:07.857Z,987.46
2018-03-04T06:51:07.871Z,987.44
2018-03-04T06:52:07.883Z,987.39
2018-03-04T06:53:07.902Z,987.42
2018-03-04T06:54:07.909Z,987.42
2018-03-04T06:55:07.934Z,987.44
2018-03-04T06:56:07.941Z,987.39
2018-03-04T06:57:07.959Z,987.35
2018-03-04T06:58:07.966Z,987.36
2018-03-04T06:59:07.983Z,987.32
2018-03-04T07:00:07.999Z,987.30
2018-03-04T07:01:08.009Z,987.23
2018-03-04T07:02:08.018Z,987.27
2018-03-04T07:03:08.040Z,987.24
2018-03-04T07:04:08.055Z,987.24
2018-03-04T07:05:08.070Z,987.24
2018-03-04T07:06:08.081Z,987.17
2018-03-04T07:07:08.096Z,987.16
2018-03-04T07:08:08.108Z,987.13
2018-03-04T07:09:08.120Z,987.13
2018-03-04T07:10:08.132Z,987.13
2018-03-04T07:11:08.149Z,987.18
2018-03-04T07:12:08.169Z,987.23
2018-03-04T07:13:08.176Z,987.19
2018-03-04T07:14:08.191Z,987.19
2018-03-04T07:15:08.205Z,987.22
2018-03-04T07:16:08.219Z,987.12
2018-03-04T07:17:08.240Z,987.12
2018-03-04T07:18:08.248Z,987.09
2018-03-04T07:19:08.257Z,987.05
2018-03-04T07:20:08.275Z,987.10
2018-03-04T07:21:08.286Z,987.14
2018-03-04T07:22:08.303Z,987.14
2018-03-04T07:23:08.317Z,987.13
2018-03-04T07:24:08.330Z,987.08
2018-03-04T07:25:08.345Z,987.08
2018-03-04T07:26:08.364Z,987.07
2018-03-04T07:27:08.378Z,987.02
2018-03-04T07:28:08.389Z,987.05
2018-03-04T07:29:08.400Z,987.01
2018-03-04T07:30:08.417Z,987.02
2018-03-04T07:31:08.432Z,986.96
2018-03-04T07:32:08.441Z,986.97
2018-03-04T07:33:08.472Z,986.98
2018-03-04T07:34:08.471Z,986.91
2018-03-04T07:35:08.515Z,986.92
2018-03-04T07:36:08.499Z,986.90
2018-03-04T07:37:08.511Z,986.87
2018-03-04T07:38:08.524Z,986.91
2018-03-04T07:39:08.548Z,986.87
2018-03-04T07:40:08.558Z,986.83
2018-03-04T07:41:08.573Z,986.80
2018-03-04T07:42:08.583Z,986.73
2018-03-04T07:43:08.598Z,986.72
2018-03-04T07:44:08.615Z,986.73
2018-03-04T07:45:08.623Z,986.68
2018-03-04T07:46:08.637Z,986.74
2018-03-04T07:47:08.658Z,986.70
2018-03-04T07:48:08.664Z,986.69
2018-03-04T07:49:08.702Z,986.71
2018-03-04T07:50:08.696Z,986.70
2018-03-04T07:51:08.744Z,986.63
2018-03-04T07:52:08.726Z,986.69
2018-03-04T07:53:08.738Z,986.72
2018-03-04T07:54:08.755Z,986.69
2018-03-04T07:55:08.787Z,986.74
2018-03-04T07:56:08.775Z,986.75
2018-03-04T07:57:08.791Z,986.73
2018-03-04T07:58:08.818Z,986.72
2018-03-04T07:59:08.821Z,986.70
2018-03-04T08:00:08.841Z,986.67
2018-03-04T08:01:08.850Z,986.71
2018-03-04T08:02:08.860Z,986.73
2018-03-04T08:03:08.882Z,986.77
2018-03-04T08:04:08.897Z,986.76
2018-03-04T08:05:08.908Z,986.73
2018-03-04T08:06:08.927Z,986.74
2018-03-04T08:07:08.943Z,986.80
2018-03-04T08:08:08.954Z,986.81
2018-03-04T08:09:08.969Z,986.82
2018-03-04T08:10:09.020Z,986.89
2018-03-04T08:11:08.997Z,986.91
2018-03-04T08:12:09.009Z,986.88
2018-03-04T08:13:09.025Z,986.85
2018-03-04T08:14:09.040Z,986.91
2018-03-04T08:15:09.075Z,986.90
2018-03-04T08:16:09.063Z,986.92
2018-03-04T08:17:09.079Z,986.87
2018-03-04T08:18:09.100Z,986.88
2018-03-04T08:19:09.115Z,986.88
2018-03-04T08:20:09.130Z,986.87
2018-03-04T08:21:09.136Z,986.87
2018-03-04T08:22:09.154Z,986.86
2018-03-04T08:23:09.170Z,986.85
2018-03-04T08:24:09.185Z,986.84
2018-03-04T08:25:09.207Z,986.83
2018-03-04T08:26:09.221Z,986.85
2018-03-04T08:27:09.228Z,986.83
2018-03-04T08:28:09.242Z,986.80
2018-03-04T08:29:09.311Z,986.79
2018-03-04T08:30:09.277Z,986.74
2018-03-04T08:31:09.286Z,986.71
2018-03-04T08:32:09.302Z,986.67
2018-03-04T08:33:09.315Z,986.67
2018-03-04T08:34:09.325Z,986.65
2018-03-04T08:35:09.345Z,986.63
2018-03-04T08:36:09.364Z,986.60
2018-03-04T08:37:09.375Z,986.66
2018-03-04T08:38:09.392Z,986.62
2018-03-04T08:39:09.407Z,986.58
2018-03-04T08:40:09.419Z,986.59
2018-03-04T08:41:09.442Z,986.62
2018-03-04T08:42:09.449Z,986.65
2018-03-04T08:43:09.464Z,986.64
2018-03-04T08:44:09.513Z,986.65
2018-03-04T08:45:09.503Z,986.61
2018-03-04T08:46:09.511Z,986.58
2018-03-04T08:47:09.527Z,986.55
2018-03-04T08:48:09.536Z,986.53
2018-03-04T08:49:09.552Z,986.52
2018-03-04T08:50:09.567Z,986.52
2018-03-04T08:51:09.589Z,986.53
2018-03-04T08:52:09.596Z,986.57
2018-03-04T08:53:09.617Z,986.58
2018-03-04T08:54:09.624Z,986.60
2018-03-04T08:55:09.649Z,986.61
2018-03-04T08:56:09.664Z,986.59
2018-03-04T08:57:09.672Z,986.61
2018-03-04T08:58:09.692Z,986.58
2018-03-04T08:59:09.735Z,986.59
2018-03-04T09:00:09.718Z,986.54
2018-03-04T09:01:09.730Z,986.53
2018-03-04T09:02:09.754Z,986.56
2018-03-04T09:03:09.775Z,986.57
2018-03-04T09:04:09.779Z,986.54
2018-03-04T09:05:09.795Z,986.55
2018-03-04T09:06:09.812Z,986.55
2018-03-04T09:07:09.828Z,986.48
2018-03-04T09:08:09.840Z,986.50
2018-03-04T09:09:09.861Z,986.55
2018-03-04T09:10:09.876Z,986.56
2018-03-04T09:11:09.887Z,986.59
2018-03-04T09:12:09.902Z,986.57
2018-03-04T09:13:09.913Z,986.64
2018-03-04T09:14:09.935Z,986.64
2018-03-04T09:15:09.953Z,986.62
2018-03-04T09:16:09.969Z,986.66
2018-03-04T09:17:09.987Z,986.60
2018-03-04T09:18:09.999Z,986.61
2018-03-04T09:19:10.011Z,986.52
2018-03-04T09:20:10.031Z,986.47
2018-03-04T09:21:10.054Z,986.45
2018-03-04T09:22:10.060Z,986.43
2018-03-04T09:23:10.073Z,986.36
2018-03-04T09:24:10.090Z,986.30
2018-03-04T09:25:10.106Z,986.23
2018-03-04T09:26:10.126Z,986.17
2018-03-04T09:27:10.138Z,986.11
2018-03-04T09:28:10.152Z,986.05
2018-03-04T09:29:10.169Z,986.05
2018-03-04T09:30:10.182Z,986.08
2018-03-04T09:31:10.199Z,986.07
2018-03-04T09:32:10.219Z,986.05
2018-03-04T09:33:10.308Z,986.03
2018-03-04T09:34:10.295Z,986.01
2018-03-04T09:35:10.262Z,985.96
2018-03-04T09:36:10.280Z,985.96
2018-03-04T09:37:10.308Z,985.93
2018-03-04T09:38:10.310Z,985.92
2018-03-04T09:39:10.331Z,985.90
2018-03-04T09:40:10.340Z,985.89
2018-03-04T09:41:10.350Z,985.88
2018-03-04T09:42:10.374Z,985.87
2018-03-04T09:43:10.397Z,985.81
2018-03-04T09:44:10.402Z,985.83
2018-03-04T09:45:10.419Z,985.80
2018-03-04T09:46:10.434Z,985.81
2018-03-04T09:47:10.460Z,985.83
2018-03-04T09:48:10.470Z,985.80
2018-03-04T09:49:10.488Z,985.80
2018-03-04T09:50:10.499Z,985.82
2018-03-04T09:51:10.521Z,985.81
2018-03-04T09:52:10.533Z,985.86
2018-03-04T09:53:10.550Z,985.89
2018-03-04T09:54:10.567Z,985.88
2018-03-04T09:55:10.589Z,985.85
2018-03-04T09:56:10.600Z,985.90
2018-03-04T09:57:10.615Z,985.86
2018-03-04T09:58:10.635Z,985.89
2018-03-04T09:59:10.652Z,985.95
2018-03-04T10:00:10.671Z,985.93
2018-03-04T10:01:10.678Z,985.98
2018-03-04T10:02:10.744Z,985.99
2018-03-04T10:03:10.713Z,986.06
2018-03-04T10:04:10.730Z,986.03
2018-03-04T10:05:10.743Z,985.97
2018-03-04T10:06:10.773Z,985.95
2018-03-04T10:07:10.775Z,985.90
2018-03-04T10:08:10.791Z,985.88
2018-03-04T10:09:10.812Z,985.90
2018-03-04T10:10:10.823Z,985.90
2018-03-04T10:11:10.846Z,985.93
2018-03-04T10:12:10.863Z,985.92
2018-03-04T10:13:10.874Z,985.95
2018-03-04T10:14:10.891Z,985.93
2018-03-04T10:15:10.905Z,985.91
2018-03-04T10:16:10.929Z,985.93
2018-03-04T10:17:10.948Z,985.91
2018-03-04T10:18:10.960Z,985.90
2018-03-04T10:19:10.973Z,985.88
2018-03-04T10:20:10.996Z,985.91
2018-03-04T10:21:11.009Z,985.87
2018-03-04T10:22:11.038Z,985.84
2018-03-04T10:23:11.037Z,985.82
2018-03-04T10:24:11.054Z,985.82
2018-03-04T10:25:11.076Z,985.79
2018-03-04T10:26:11.140Z,985.81
2018-03-04T10:27:11.147Z,985.83
2018-03-04T10:28:11.126Z,985.83
2018-03-04T10:29:11.144Z,985.83
2018-03-04T10:30:11.155Z,985.82
2018-03-04T10:31:11.180Z,985.83
2018-03-04T10:32:11.191Z,985.82
2018-03-04T10:33:11.209Z,985.82
2018-03-04T10:34:11.244Z,985.83
2018-03-04T10:35:11.242Z,985.84
2018-03-04T10:36:11.259Z,985.84
2018-03-04T10:37:11.273Z,985.85
2018-03-04T10:38:11.291Z,985.85
2018-03-04T10:39:11.311Z,985.87
2018-03-04T10:40:11.332Z,985.84
2018-03-04T10:41:11.341Z,985.83
2018-03-04T10:42:11.364Z,985.81
2018-03-04T10:43:11.377Z,985.84
2018-03-04T10:44:11.402Z,985.87
2018-03-04T10:45:11.412Z,985.85
2018-03-04T10:46:11.444Z,985.88
2018-03-04T10:47:11.453Z,985.86
2018-03-04T10:48:11.463Z,985.86
2018-03-04T10:49:11.478Z,985.87
2018-03-04T10:50:11.492Z,985.86
2018-03-04T10:51:11.514Z,985.88
2018-03-04T10:52:11.530Z,985.85
2018-03-04T10:53:11.546Z,985.92
2018-03-04T10:54:11.562Z,985.96
2018-03-04T10:55:11.582Z,985.96
2018-03-04T10:56:11.606Z,985.95
2018-03-04T10:57:11.631Z,985.95
2018-03-04T10:58:11.635Z,985.99
2018-03-04T10:59:11.649Z,986.00
2018-03-04T11:00:11.668Z,985.99
2018-03-04T11:01:11.693Z,985.98
2018-03-04T11:02:11.699Z,985.94
2018-03-04T11:03:11.727Z,985.94
2018-03-04T11:04:11.736Z,985.94
2018-03-04T11:05:11.756Z,985.91
2018-03-04T11:06:11.769Z,985.85
2018-03-04T11:07:11.793Z,985.90
2018-03-04T11:08:11.808Z,985.81
2018-03-04T11:09:11.834Z,985.78
2018-03-04T11:10:11.860Z,985.77
2018-03-04T11:11:11.860Z,985.79
2018-03-04T11:12:11.904Z,985.78
2018-03-04T11:13:11.902Z,985.82
2018-03-04T11:14:11.921Z,985.81
2018-03-04T11:15:11.933Z,985.77
2018-03-04T11:16:11.942Z,985.75
2018-03-04T11:17:12.033Z,985.66
2018-03-04T11:18:11.983Z,985.61
2018-03-04T11:19:12.072Z,985.57
2018-03-04T11:20:12.013Z,985.59
2018-03-04T11:21:12.055Z,985.57
2018-03-04T11:22:12.133Z,985.54
2018-03-04T11:23:12.111Z,985.54
2018-03-04T11:24:12.099Z,985.57
2018-03-04T11:25:12.120Z,985.54
2018-03-04T11:26:12.138Z,985.53
2018-03-04T11:27:12.141Z,985.53
2018-03-04T11:28:12.179Z,985.50
2018-03-04T11:29:12.171Z,985.50
2018-03-04T11:30:12.188Z,985.51
2018-03-04T11:31:12.215Z,985.51
2018-03-04T11:32:12.231Z,985.53
2018-03-04T11:33:12.246Z,985.54
2018-03-04T11:34:12.263Z,985.55
2018-03-04T11:35:12.324Z,985.47
2018-03-04T11:36:12.314Z,985.48
2018-03-04T11:37:12.318Z,985.40
2018-03-04T11:38:12.332Z,985.38
2018-03-04T11:39:12.364Z,985.37
2018-03-04T11:40:12.381Z,985.39
2018-03-04T11:41:12.394Z,985.35
2018-03-04T11:42:12.416Z,985.32
2018-03-04T11:43:12.427Z,985.31
2018-03-04T11:44:12.451Z,985.26
2018-03-04T11:45:12.463Z,985.28
2018-03-04T11:46:12.487Z,985.34
2018-03-04T11:47:12.528Z,985.30
2018-03-04T11:48:12.524Z,985.30
2018-03-04T11:49:12.537Z,985.29
2018-03-04T11:50:12.558Z,985.25
2018-03-04T11:51:12.586Z,985.27
2018-03-04T11:52:12.593Z,985.25
2018-03-04T11:53:12.617Z,985.24
2018-03-04T11:54:12.639Z,985.21
2018-03-04T11:55:12.651Z,985.17
2018-03-04T11:56:12.674Z,985.18
2018-03-04T11:57:12.687Z,985.18
2018-03-04T11:58:12.704Z,985.13
2018-03-04T11:59:12.723Z,985.12
2018-03-04T12:00:12.757Z,985.11
2018-03-04T12:01:12.764Z,985.06
2018-03-04T12:02:12.787Z,985.04
2018-03-04T12:03:12.798Z,985.05
2018-03-04T12:04:12.817Z,985.04
2018-03-04T12:05:12.835Z,984.99
2018-03-04T12:06:12.850Z,985.02
2018-03-04T12:07:12.877Z,984.94
2018-03-04T12:08:12.893Z,984.90
2018-03-04T12:09:12.914Z,984.83
2018-03-04T12:10:12.929Z,984.79
2018-03-04T12:11:13.022Z,984.71
2018-03-04T12:12:12.973Z,984.72
2018-03-04T12:13:12.980Z,984.70
2018-03-04T12:14:13.001Z,984.65
2018-03-04T12:15:13.027Z,984.57
2018-03-04T12:16:13.051Z,984.55
2018-03-04T12:17:13.108Z,984.53
2018-03-04T12:18:13.079Z,984.47
2018-03-04T12:19:13.098Z,984.41
2018-03-04T12:20:13.122Z,984.49
2018-03-04T12:21:13.136Z,984.45
2018-03-04T12:22:13.158Z,984.41
2018-03-04T12:23:13.180Z,984.39
2018-03-04T12:24:13.200Z,984.31
2018-03-04T12:25:13.217Z,984.32
2018-03-04T12:26:13.235Z,984.30
2018-03-04T12:27:13.255Z,984.28
2018-03-04T12:28:13.283Z,984.25